Time;durP1;ratioP1;P1;durP2;ratioP2;P2;SDS_P1;SDS_P2;PMS_P1;PMS_P2;Temp;Humidity;BMP_temperature;BMP_pressure;BME280_temperature;BME280_humidity;BME280_pressure;Samples;Min_cycle;Max_cycle;Signal;HPM_P1;HPM_P2
2023/09/16 00:00:08;;;;;;;1.65;1.13;;;22.80;77.40;;;;;;4996333;28;20478;-77
2023/09/16 00:02:35;;;;;;;2.80;1.75;;;22.90;77.50;;;;;;4997380;28;20030;-77
2023/09/16 00:05:00;;;;;;;3.47;1.95;;;22.90;77.40;;;;;;4996820;28;20034;-78
2023/09/16 00:07:27;;;;;;;1.98;1.20;;;22.90;77.40;;;;;;4997114;28;20331;-78
2023/09/16 00:09:56;;;;;;;1.92;1.30;;;22.80;77.20;;;;;;5014920;28;20026;-78
2023/09/16 00:12:25;;;;;;;2.63;1.90;;;22.80;77.60;;;;;;4981911;28;20420;-78
2023/09/16 00:14:51;;;;;;;3.53;1.20;;;22.80;77.50;;;;;;4996266;28;20118;-79
2023/09/16 00:17:17;;;;;;;2.65;1.80;;;22.80;77.30;;;;;;4996267;28;20030;-79
2023/09/16 00:19:43;;;;;;;3.97;1.73;;;22.80;77.30;;;;;;5013548;28;20048;-80
2023/09/16 00:22:11;;;;;;;2.42;1.63;;;22.70;77.30;;;;;;5013840;28;20030;-79
2023/09/16 00:24:37;;;;;;;3.50;2.10;;;22.70;77.70;;;;;;5014026;28;20038;-78
2023/09/16 00:27:04;;;;;;;2.28;1.52;;;22.70;77.60;;;;;;4996638;28;20451;-79
2023/09/16 00:29:29;;;;;;;2.30;1.40;;;22.70;77.80;;;;;;5014137;28;20073;-78
2023/09/16 00:31:56;;;;;;;1.52;1.20;;;22.70;78.00;;;;;;5013402;28;20517;-79
2023/09/16 00:34:22;;;;;;;2.25;1.58;;;22.70;78.10;;;;;;4996370;28;20026;-80
2023/09/16 00:36:47;;;;;;;2.40;1.83;;;22.70;78.20;;;;;;4995857;28;20034;-79
2023/09/16 00:39:13;;;;;;;3.25;1.92;;;22.80;78.20;;;;;;4995678;28;20037;-80
2023/09/16 00:41:40;;;;;;;2.20;1.15;;;22.80;78.10;;;;;;5013440;28;20034;-80
2023/09/16 00:44:05;;;;;;;5.97;2.70;;;22.80;78.00;;;;;;5013661;28;20037;-80
2023/09/16 00:46:31;;;;;;;4.45;2.50;;;22.80;77.40;;;;;;4996182;28;20034;-80
2023/09/16 00:48:57;;;;;;;2.67;1.90;;;22.80;77.10;;;;;;4995180;28;20029;-80
2023/09/16 00:51:23;;;;;;;3.45;1.65;;;22.80;77.20;;;;;;5013213;28;20060;-81
2023/09/16 00:53:49;;;;;;;1.50;1.40;;;22.70;77.40;;;;;;4979663;28;20459;-81
2023/09/16 00:56:15;;;;;;;3.50;2.53;;;22.70;77.90;;;;;;4995647;28;20133;-81
2023/09/16 00:58:41;;;;;;;5.03;3.47;;;22.70;77.80;;;;;;4995836;28;20061;-81
2023/09/16 01:01:09;;;;;;;5.22;2.30;;;22.60;77.90;;;;;;4995941;28;20042;-81
2023/09/16 01:03:35;;;;;;;2.47;1.50;;;22.60;78.00;;;;;;5013279;28;20049;-81
2023/09/16 01:06:04;;;;;;;2.85;2.00;;;22.50;78.40;;;;;;5011879;28;20538;-80
2023/09/16 01:08:32;;;;;;;3.22;1.98;;;22.50;78.50;;;;;;5013299;28;20037;-80
2023/09/16 01:10:58;;;;;;;3.42;2.50;;;22.40;78.50;;;;;;5013214;28;20300;-79
2023/09/16 01:13:24;;;;;;;1.95;1.45;;;22.40;78.70;;;;;;4995577;28;20040;-80
2023/09/16 01:16:01;;;;;;;4.95;3.03;;;22.30;79.00;;;;;;4995820;28;20026;-80
2023/09/16 01:18:38;;;;;;;2.42;1.50;;;22.40;79.20;;;;;;4995750;28;20113;-79
2023/09/16 01:21:05;;;;;;;2.80;1.80;;;22.40;79.50;;;;;;5013191;28;20053;-79
2023/09/16 01:23:32;;;;;;;4.10;2.05;;;22.40;79.60;;;;;;5013152;28;20076;-79
2023/09/16 01:25:58;;;;;;;2.50;1.60;;;22.40;79.50;;;;;;4995746;28;20057;-79
2023/09/16 01:28:25;;;;;;;1.70;1.33;;;22.40;79.30;;;;;;5013134;28;20058;-79
2023/09/16 01:30:51;;;;;;;3.08;1.40;;;22.40;79.40;;;;;;5012827;28;20478;-79
2023/09/16 01:33:25;;;;;;;1.85;1.35;;;22.50;79.50;;;;;;5013468;28;20105;-79
2023/09/16 01:36:07;;;;;;;2.00;1.52;;;22.50;79.50;;;;;;5013365;28;20100;-79
2023/09/16 01:38:35;;;;;;;2.35;1.60;;;22.40;79.40;;;;;;5013035;28;20425;-79
2023/09/16 01:41:02;;;;;;;2.50;1.38;;;22.50;79.60;;;;;;5012968;28;20070;-79
2023/09/16 01:43:28;;;;;;;2.75;1.38;;;22.50;79.60;;;;;;5012910;28;20030;-79
2023/09/16 01:45:54;;;;;;;2.30;2.10;;;22.60;79.60;;;;;;4995722;28;20506;-79
2023/09/16 01:48:19;;;;;;;2.40;1.90;;;22.50;79.50;;;;;;5012893;28;20406;-79
2023/09/16 01:50:45;;;;;;;2.50;2.30;;;22.60;79.30;;;;;;4995814;28;20056;-80
2023/09/16 01:53:11;;;;;;;2.33;2.13;;;22.50;79.20;;;;;;5012759;28;20061;-79
2023/09/16 01:55:37;;;;;;;4.05;2.17;;;22.40;79.40;;;;;;5012689;28;20053;-79
2023/09/16 01:58:04;;;;;;;1.90;1.67;;;22.40;79.50;;;;;;5013114;28;20037;-79
2023/09/16 02:00:30;;;;;;;3.72;1.70;;;22.40;79.50;;;;;;5015828;28;20045;-79
2023/09/16 02:02:55;;;;;;;2.60;1.90;;;22.40;79.60;;;;;;5016525;28;20038;-79
2023/09/16 02:05:21;;;;;;;2.67;2.10;;;22.40;79.70;;;;;;4998597;28;20077;-80
2023/09/16 02:07:47;;;;;;;2.75;2.35;;;22.40;79.60;;;;;;4998859;28;20104;-79
2023/09/16 02:10:13;;;;;;;3.00;2.15;;;22.40;79.40;;;;;;4999098;28;20049;-79
2023/09/16 02:12:38;;;;;;;3.72;2.65;;;22.40;79.50;;;;;;4998705;28;20034;-79
2023/09/16 02:15:06;;;;;;;3.25;1.70;;;22.40;79.70;;;;;;4998791;28;20120;-79
2023/09/16 02:17:32;;;;;;;2.38;1.48;;;22.40;79.90;;;;;;5017733;28;20030;-80
2023/09/16 02:19:57;;;;;;;2.47;1.55;;;22.40;80.00;;;;;;5004410;28;20076;-79
2023/09/16 02:22:23;;;;;;;2.65;1.58;;;22.40;80.10;;;;;;5023032;28;20041;-79
2023/09/16 02:24:49;;;;;;;2.95;2.35;;;22.50;80.10;;;;;;5001155;28;20030;-79
2023/09/16 02:27:14;;;;;;;2.22;1.73;;;22.50;80.10;;;;;;5017373;28;20395;-79
2023/09/16 02:29:40;;;;;;;2.10;1.75;;;22.50;79.90;;;;;;5016797;28;20450;-80
2023/09/16 02:32:06;;;;;;;2.13;1.77;;;22.60;79.90;;;;;;4998512;28;20383;-79
2023/09/16 02:34:35;;;;;;;3.65;2.10;;;22.60;79.80;;;;;;5016073;28;20109;-80
2023/09/16 02:37:01;;;;;;;3.30;1.95;;;22.60;79.70;;;;;;4999671;28;20482;-80
2023/09/16 02:39:27;;;;;;;2.55;2.15;;;22.60;79.70;;;;;;5016375;28;20034;-79
2023/09/16 02:41:53;;;;;;;2.40;1.98;;;22.60;79.50;;;;;;4998299;28;20034;-80
2023/09/16 02:44:18;;;;;;;2.20;2.00;;;22.60;79.70;;;;;;4998763;28;20324;-80
2023/09/16 02:46:44;;;;;;;1.55;1.23;;;22.60;79.70;;;;;;5015999;28;20064;-80
2023/09/16 02:49:10;;;;;;;4.60;2.58;;;22.60;79.70;;;;;;4998289;28;20034;-80
2023/09/16 02:51:36;;;;;;;3.40;2.30;;;22.60;79.70;;;;;;5015344;28;20030;-80
2023/09/16 02:54:01;;;;;;;1.98;1.67;;;22.50;79.50;;;;;;5015675;28;20537;-80
2023/09/16 02:56:27;;;;;;;4.07;2.20;;;22.50;79.60;;;;;;4997163;28;20089;-80
2023/09/16 02:58:53;;;;;;;2.65;2.30;;;22.40;79.70;;;;;;5015233;28;20049;-80
2023/09/16 03:01:19;;;;;;;3.88;2.35;;;22.40;79.80;;;;;;5015220;28;20042;-79
2023/09/16 03:03:45;;;;;;;5.15;2.47;;;22.50;80.00;;;;;;5015042;28;20022;-79
2023/09/16 03:06:11;;;;;;;2.92;2.10;;;22.50;80.00;;;;;;5015267;28;20413;-79
2023/09/16 03:08:36;;;;;;;2.38;2.15;;;22.50;80.00;;;;;;4997643;28;20034;-79
2023/09/16 03:11:06;;;;;;;2.28;1.90;;;22.40;80.00;;;;;;5014097;28;20030;-79
2023/09/16 03:13:32;;;;;;;2.72;2.28;;;22.50;80.00;;;;;;4997083;28;20026;-78
2023/09/16 03:16:17;;;;;;;2.78;2.20;;;22.40;80.00;;;;;;4997761;28;20382;-78
2023/09/16 03:18:51;;;;;;;5.85;3.00;;;22.50;80.00;;;;;;5015420;28;20053;-80
2023/09/16 03:21:17;;;;;;;2.85;2.42;;;22.50;80.00;;;;;;5014584;28;20033;-79
2023/09/16 03:23:44;;;;;;;4.10;2.42;;;22.40;79.90;;;;;;4997652;28;20120;-79
2023/09/16 03:26:11;;;;;;;3.88;3.08;;;22.50;80.50;;;;;;5014777;28;20029;-80
2023/09/16 03:28:41;;;;;;;3.95;2.67;;;22.50;79.90;;;;;;4997376;28;20033;-80
2023/09/16 03:31:06;;;;;;;3.42;2.72;;;22.40;79.90;;;;;;5014559;28;20116;-80
2023/09/16 03:33:32;;;;;;;3.15;2.50;;;22.40;80.00;;;;;;5014426;28;20517;-80
2023/09/16 03:35:58;;;;;;;2.60;1.98;;;22.30;80.10;;;;;;4997021;28;20375;-80
2023/09/16 03:38:29;;;;;;;2.88;2.42;;;22.30;80.20;;;;;;5014700;28;20110;-80
2023/09/16 03:40:55;;;;;;;2.38;2.15;;;22.30;80.90;;;;;;5014853;28;20041;-81
2023/09/16 03:43:21;;;;;;;3.22;2.08;;;22.40;80.30;;;;;;4997278;28;20030;-79
2023/09/16 03:45:47;;;;;;;2.30;2.10;;;22.30;80.30;;;;;;5014505;28;20030;-80
2023/09/16 03:48:12;;;;;;;3.00;1.95;;;22.40;80.30;;;;;;5015177;28;20346;-80
2023/09/16 03:50:38;;;;;;;3.95;2.97;;;22.30;80.30;;;;;;5014472;28;20100;-80
2023/09/16 03:53:04;;;;;;;2.63;2.22;;;22.30;80.30;;;;;;5014272;28;20022;-80
2023/09/16 03:55:30;;;;;;;2.80;2.22;;;22.40;80.30;;;;;;4996955;28;20486;-80
2023/09/16 03:57:55;;;;;;;3.03;2.15;;;22.30;80.30;;;;;;4996427;28;20075;-80
2023/09/16 04:00:21;;;;;;;3.17;2.38;;;22.30;80.30;;;;;;4980279;28;20046;-80
2023/09/16 04:02:47;;;;;;;3.83;2.75;;;22.30;80.40;;;;;;5014255;28;20530;-80
2023/09/16 04:05:13;;;;;;;3.13;2.72;;;22.30;80.40;;;;;;5014118;28;20176;-80
2023/09/16 04:07:39;;;;;;;3.92;2.63;;;22.20;80.50;;;;;;4996754;28;20026;-79
2023/09/16 04:10:09;;;;;;;3.08;2.47;;;22.20;80.60;;;;;;4996368;28;20041;-80
2023/09/16 04:12:35;;;;;;;3.20;2.50;;;22.20;80.70;;;;;;5014386;28;20029;-80
2023/09/16 04:15:01;;;;;;;3.25;2.38;;;22.20;80.70;;;;;;5013578;28;20471;-80
2023/09/16 04:17:27;;;;;;;2.55;2.35;;;22.20;80.70;;;;;;5013747;28;20030;-80
2023/09/16 04:19:53;;;;;;;2.00;1.67;;;22.20;80.70;;;;;;5013837;28;20471;-80
2023/09/16 04:22:19;;;;;;;2.50;2.30;;;22.30;80.80;;;;;;4979859;28;20128;-80
2023/09/16 04:24:46;;;;;;;2.75;2.22;;;22.20;80.60;;;;;;5014436;28;20121;-79
2023/09/16 04:27:11;;;;;;;2.30;2.10;;;22.20;80.60;;;;;;4996209;28;20034;-80
2023/09/16 04:29:37;;;;;;;3.90;2.78;;;22.20;80.70;;;;;;4996013;28;20034;-79
2023/09/16 04:32:03;;;;;;;4.15;3.60;;;22.20;80.80;;;;;;4996147;28;20040;-80
2023/09/16 04:34:29;;;;;;;5.43;4.18;;;22.20;80.70;;;;;;4995996;28;20105;-79
2023/09/16 04:36:55;;;;;;;3.55;2.97;;;22.20;80.00;;;;;;5013630;28;20491;-79
2023/09/16 04:39:24;;;;;;;3.85;2.60;;;22.10;80.10;;;;;;4996381;28;20037;-79
2023/09/16 04:41:56;;;;;;;4.30;2.55;;;22.00;80.30;;;;;;5014334;28;20045;-80
2023/09/16 04:44:23;;;;;;;4.88;2.85;;;22.00;80.70;;;;;;4981669;28;20080;-80
2023/09/16 04:46:53;;;;;;;4.82;3.90;;;21.90;80.60;;;;;;5013626;28;20061;-80
2023/09/16 04:49:19;;;;;;;2.90;2.65;;;21.90;80.50;;;;;;5013328;28;20026;-79
2023/09/16 04:51:46;;;;;;;4.10;2.83;;;21.90;80.90;;;;;;4995409;28;20050;-80
2023/09/16 04:54:11;;;;;;;3.25;2.60;;;21.90;81.20;;;;;;5013574;28;20030;-80
2023/09/16 04:56:37;;;;;;;2.80;2.50;;;21.80;81.20;;;;;;5012809;28;20108;-79
2023/09/16 04:59:04;;;;;;;3.08;2.55;;;21.80;81.40;;;;;;4995467;28;20065;-79
2023/09/16 05:01:30;;;;;;;3.25;2.67;;;21.80;81.60;;;;;;5013048;28;20049;-79
2023/09/16 05:03:56;;;;;;;4.82;3.38;;;21.80;81.50;;;;;;5013280;28;20034;-79
2023/09/16 05:06:22;;;;;;;3.25;2.92;;;21.80;81.70;;;;;;4996080;28;20359;-79
2023/09/16 05:08:48;;;;;;;4.15;3.60;;;21.80;81.80;;;;;;5013094;28;20038;-79
2023/09/16 05:11:14;;;;;;;2.15;1.63;;;21.70;81.80;;;;;;4995523;28;20033;-79
2023/09/16 05:13:41;;;;;;;4.55;2.28;;;21.80;81.90;;;;;;5013285;28;20068;-79
2023/09/16 05:16:10;;;;;;;2.95;2.28;;;21.80;82.00;;;;;;5012966;28;20056;-79
2023/09/16 05:18:35;;;;;;;2.92;2.22;;;21.80;82.00;;;;;;5012687;28;20041;-79
2023/09/16 05:21:01;;;;;;;3.80;3.35;;;21.80;81.90;;;;;;5012587;28;20034;-79
2023/09/16 05:23:27;;;;;;;4.63;2.85;;;21.90;82.00;;;;;;5012900;28;20040;-79
2023/09/16 05:25:52;;;;;;;3.83;3.10;;;21.90;81.90;;;;;;5012886;28;20057;-79
2023/09/16 05:28:18;;;;;;;4.07;2.70;;;21.90;81.90;;;;;;4995227;28;20052;-79
2023/09/16 05:30:44;;;;;;;3.08;2.55;;;21.90;81.60;;;;;;5013408;28;20069;-79
2023/09/16 05:33:13;;;;;;;3.50;2.70;;;21.80;81.60;;;;;;5012838;28;20062;-79
2023/09/16 05:35:40;;;;;;;3.38;2.88;;;21.90;81.80;;;;;;5016280;28;20025;-78
2023/09/16 05:38:06;;;;;;;2.72;2.28;;;21.80;81.90;;;;;;5016861;28;20053;-78
2023/09/16 05:40:32;;;;;;;3.75;2.92;;;21.80;82.00;;;;;;4999193;28;20030;-79
2023/09/16 05:42:58;;;;;;;3.40;3.03;;;21.80;82.10;;;;;;5016434;28;20030;-79
2023/09/16 05:45:24;;;;;;;4.05;3.00;;;21.80;82.00;;;;;;5016573;28;20424;-79
2023/09/16 05:47:51;;;;;;;4.28;3.65;;;21.90;82.10;;;;;;5016454;28;20528;-79
2023/09/16 05:50:17;;;;;;;3.10;2.28;;;21.90;82.10;;;;;;4982655;28;20041;-79
2023/09/16 05:52:43;;;;;;;3.97;2.75;;;21.90;82.00;;;;;;4998728;28;20034;-79
2023/09/16 05:55:09;;;;;;;3.15;2.40;;;21.90;81.90;;;;;;5016237;28;20025;-79
2023/09/16 05:57:35;;;;;;;3.03;2.72;;;21.90;81.90;;;;;;4998726;28;20124;-79
2023/09/16 06:00:01;;;;;;;3.95;3.10;;;21.90;81.90;;;;;;4998530;28;20030;-79
2023/09/16 06:02:27;;;;;;;4.40;3.00;;;21.90;81.90;;;;;;5016340;28;20117;-79
2023/09/16 06:04:52;;;;;;;2.97;2.60;;;21.90;81.90;;;;;;5015955;28;20049;-79
2023/09/16 06:07:18;;;;;;;3.05;2.67;;;21.90;81.90;;;;;;4998611;28;20524;-79
2023/09/16 06:09:44;;;;;;;3.15;2.83;;;21.90;81.90;;;;;;4998320;28;20053;-79
2023/09/16 06:12:09;;;;;;;3.60;2.55;;;21.90;81.90;;;;;;5016270;28;20076;-79
2023/09/16 06:14:35;;;;;;;3.40;2.47;;;21.90;81.90;;;;;;5016160;28;20030;-78
2023/09/16 06:17:01;;;;;;;2.67;2.38;;;21.90;81.90;;;;;;5015801;28;20036;-78
2023/09/16 06:19:28;;;;;;;4.13;3.42;;;21.90;81.90;;;;;;5015648;28;20368;-79
2023/09/16 06:21:55;;;;;;;4.10;3.28;;;21.90;81.80;;;;;;5016000;28;20038;-79
2023/09/16 06:24:21;;;;;;;4.00;3.40;;;21.80;81.90;;;;;;4998366;28;20044;-79
2023/09/16 06:26:47;;;;;;;3.28;2.90;;;21.80;82.10;;;;;;5015563;28;20034;-79
2023/09/16 06:29:12;;;;;;;4.07;3.38;;;21.80;82.30;;;;;;5016037;28;20033;-79
2023/09/16 06:31:38;;;;;;;4.85;2.55;;;21.80;82.40;;;;;;5016038;28;20038;-78
2023/09/16 06:34:05;;;;;;;3.78;3.10;;;21.70;82.50;;;;;;5016197;28;20033;-79
2023/09/16 06:36:31;;;;;;;3.30;3.00;;;21.70;82.60;;;;;;5016170;28;20026;-80
2023/09/16 06:38:57;;;;;;;7.40;3.25;;;21.70;82.90;;;;;;5015930;28;20041;-79
2023/09/16 06:41:23;;;;;;;3.13;2.60;;;21.70;82.70;;;;;;5015660;28;20038;-79
2023/09/16 06:43:48;;;;;;;2.90;2.35;;;21.70;82.80;;;;;;5015285;28;20037;-79
2023/09/16 06:46:14;;;;;;;3.50;3.00;;;21.70;82.80;;;;;;5014122;28;20072;-79
2023/09/16 06:48:40;;;;;;;1.92;1.75;;;21.80;82.80;;;;;;4997824;28;20096;-79
2023/09/16 06:51:05;;;;;;;4.53;3.00;;;21.80;82.60;;;;;;4998032;28;20046;-78
2023/09/16 06:53:32;;;;;;;2.58;2.33;;;21.80;82.60;;;;;;4998203;28;20037;-79
2023/09/16 06:55:57;;;;;;;2.90;2.65;;;21.80;82.40;;;;;;4997489;28;20117;-79
2023/09/16 06:58:23;;;;;;;3.95;2.78;;;21.80;82.40;;;;;;4999552;28;20533;-79
2023/09/16 07:00:49;;;;;;;4.22;3.67;;;21.80;82.40;;;;;;5000352;28;20038;-79
2023/09/16 07:03:14;;;;;;;5.97;3.90;;;21.80;82.30;;;;;;5000196;28;20060;-79
2023/09/16 07:05:46;;;;;;;7.35;5.03;;;21.70;82.80;;;;;;5016298;28;20032;-79
2023/09/16 07:08:12;;;;;;;5.15;4.05;;;21.70;83.20;;;;;;5015533;28;20029;-80
2023/09/16 07:10:37;;;;;;;6.20;5.00;;;21.60;83.60;;;;;;5015705;28;20033;-80
2023/09/16 07:13:03;;;;;;;5.60;3.92;;;21.50;83.90;;;;;;5015584;28;20034;-79
2023/09/16 07:15:29;;;;;;;4.75;3.20;;;21.40;84.10;;;;;;4997839;28;20335;-79
2023/09/16 07:17:54;;;;;;;5.32;3.72;;;21.50;85.00;;;;;;4997468;28;20029;-79
2023/09/16 07:20:20;;;;;;;6.93;5.43;;;21.50;83.80;;;;;;4997087;28;20035;-79
2023/09/16 07:22:46;;;;;;;7.85;5.78;;;21.60;83.60;;;;;;5014613;28;20093;-80
2023/09/16 07:25:11;;;;;;;7.95;5.85;;;21.60;83.60;;;;;;5014838;28;20034;-79
2023/09/16 07:27:37;;;;;;;8.10;6.28;;;21.70;83.70;;;;;;5014870;28;20034;-79
2023/09/16 07:30:03;;;;;;;6.82;5.50;;;21.70;84.20;;;;;;5015398;28;20044;-79
2023/09/16 07:32:29;;;;;;;6.32;5.03;;;21.60;84.10;;;;;;5015545;28;20034;-79
2023/09/16 07:34:54;;;;;;;6.25;4.07;;;21.50;84.90;;;;;;5015009;28;20490;-79
2023/09/16 07:37:20;;;;;;;7.75;5.38;;;21.30;85.50;;;;;;5014681;28;20433;-79
2023/09/16 07:39:47;;;;;;;5.82;5.22;;;21.40;85.70;;;;;;5014462;28;20425;-79
2023/09/16 07:42:12;;;;;;;5.88;4.35;;;21.40;85.90;;;;;;5014535;28;20096;-79
2023/09/16 07:44:38;;;;;;;7.30;5.07;;;21.40;85.20;;;;;;4996868;28;20034;-79
2023/09/16 07:47:04;;;;;;;5.68;4.63;;;21.50;85.10;;;;;;5014564;28;20033;-79
2023/09/16 07:49:29;;;;;;;5.93;4.40;;;21.60;85.20;;;;;;5014650;28;20051;-78
2023/09/16 07:51:55;;;;;;;5.75;4.65;;;21.80;85.00;;;;;;5014729;28;20109;-79
2023/09/16 07:54:22;;;;;;;6.50;5.65;;;21.90;84.80;;;;;;4980420;28;20429;-80
2023/09/16 07:56:47;;;;;;;7.32;5.63;;;21.90;84.60;;;;;;4980285;28;20089;-79
2023/09/16 07:59:19;;;;;;;9.18;6.28;;;21.80;85.30;;;;;;5013963;28;20049;-79
2023/09/16 08:01:45;;;;;;;5.50;4.60;;;21.80;85.30;;;;;;5014268;28;20486;-78
2023/09/16 08:04:10;;;;;;;6.88;5.47;;;21.80;85.00;;;;;;5014082;28;20073;-80
2023/09/16 08:06:36;;;;;;;8.88;4.30;;;21.90;84.90;;;;;;5013794;28;20090;-80
2023/09/16 08:09:02;;;;;;;6.35;5.38;;;21.90;84.50;;;;;;4996706;28;20481;-79
2023/09/16 08:11:28;;;;;;;6.75;4.78;;;22.00;84.70;;;;;;4980901;28;20030;-80
2023/09/16 08:13:53;;;;;;;7.53;5.32;;;22.10;85.00;;;;;;4996420;28;20041;-80
2023/09/16 08:16:19;;;;;;;4.13;3.50;;;22.10;85.20;;;;;;4996681;28;20547;-80
2023/09/16 08:18:45;;;;;;;8.48;6.32;;;22.20;84.60;;;;;;5013827;28;20355;-80
2023/09/16 08:21:10;;;;;;;7.10;4.30;;;22.20;85.00;;;;;;4996224;28;20104;-80
2023/09/16 08:23:36;;;;;;;8.50;5.38;;;22.40;85.10;;;;;;5013474;28;20034;-82
2023/09/16 08:26:02;;;;;;;7.78;5.97;;;22.50;84.90;;;;;;5013911;28;20080;-84
2023/09/16 08:28:27;;;;;;;8.68;6.07;;;22.60;84.20;;;;;;4996219;28;20119;-85
2023/09/16 08:30:53;;;;;;;10.05;5.85;;;22.60;84.20;;;;;;5014093;28;20045;-85
2023/09/16 08:33:18;;;;;;;4.80;4.30;;;22.50;84.10;;;;;;4996529;28;20353;-85
2023/09/16 08:35:44;;;;;;;4.03;3.28;;;22.50;84.20;;;;;;5013738;28;20463;-85
2023/09/16 08:38:10;;;;;;;4.90;4.20;;;22.60;84.10;;;;;;4980317;28;20443;-85
2023/09/16 08:40:35;;;;;;;5.43;4.25;;;22.60;84.60;;;;;;4996526;28;20447;-81
2023/09/16 08:43:21;;;;;;;7.78;6.55;;;22.80;83.80;;;;;;5013837;28;20038;-80
2023/09/16 08:46:02;;;;;;;8.55;5.68;;;22.90;83.30;;;;;;4995576;28;20037;-81
2023/09/16 08:48:35;;;;;;;7.85;5.43;;;23.00;83.00;;;;;;5014127;28;20105;-81
2023/09/16 08:51:04;;;;;;;7.75;5.20;;;23.00;82.70;;;;;;4996319;28;20036;-81
2023/09/16 08:53:33;;;;;;;6.22;5.35;;;23.20;83.10;;;;;;4980631;28;20403;-81
2023/09/16 08:55:59;;;;;;;7.15;5.05;;;23.20;82.50;;;;;;5013562;28;20030;-81
2023/09/16 08:58:26;;;;;;;4.75;3.88;;;23.30;82.50;;;;;;4995752;28;20054;-82
2023/09/16 09:00:51;;;;;;;4.93;3.33;;;23.40;81.90;;;;;;4995442;28;20116;-82
2023/09/16 09:03:17;;;;;;;7.18;4.90;;;23.60;81.30;;;;;;4996180;28;20151;-81
2023/09/16 09:05:44;;;;;;;5.90;4.00;;;23.70;81.10;;;;;;5012987;28;20030;-82
2023/09/16 09:08:11;;;;;;;7.63;4.47;;;23.80;81.40;;;;;;4995185;28;20103;-80
2023/09/16 09:10:39;;;;;;;5.80;3.58;;;23.90;79.80;;;;;;4979075;28;20040;-81
2023/09/16 09:13:10;;;;;;;8.13;3.42;;;24.00;78.90;;;;;;5013323;28;20033;-80
2023/09/16 09:15:39;;;;;;;7.85;3.05;;;24.00;78.40;;;;;;5014814;28;20084;-82
2023/09/16 09:18:07;;;;;;;6.03;3.17;;;24.10;78.50;;;;;;5014870;28;20045;-82
2023/09/16 09:20:33;;;;;;;5.20;3.03;;;24.20;78.20;;;;;;5015218;28;20049;-82
2023/09/16 09:22:59;;;;;;;7.22;3.30;;;24.30;77.90;;;;;;4996886;28;20482;-82
2023/09/16 09:25:27;;;;;;;7.05;4.22;;;24.40;78.60;;;;;;5015075;28;20224;-83
2023/09/16 09:27:54;;;;;;;7.07;4.72;;;24.60;79.30;;;;;;5014823;28;20106;-82
2023/09/16 09:30:26;;;;;;;6.10;4.00;;;24.60;79.00;;;;;;4981180;28;20042;-82
2023/09/16 09:32:55;;;;;;;8.13;4.07;;;24.70;78.80;;;;;;4999037;28;20121;-82
2023/09/16 09:35:31;;;;;;;4.78;3.42;;;24.80;78.50;;;;;;5001549;28;20026;-82
2023/09/16 09:37:57;;;;;;;6.43;4.78;;;24.80;76.20;;;;;;5016986;28;20026;-82
2023/09/16 09:40:23;;;;;;;6.43;4.22;;;24.70;78.30;;;;;;4997658;28;20030;-82
2023/09/16 09:42:52;;;;;;;9.02;5.00;;;24.80;78.40;;;;;;4996458;28;20030;-82
2023/09/16 09:45:22;;;;;;;5.88;4.25;;;25.00;77.90;;;;;;5014576;28;20081;-81
2023/09/16 09:47:50;;;;;;;5.85;3.13;;;25.10;77.90;;;;;;5016394;28;20037;-82
2023/09/16 09:50:18;;;;;;;4.85;3.30;;;25.10;74.90;;;;;;5016363;28;20387;-83
2023/09/16 09:52:51;;;;;;;4.95;3.22;;;25.10;77.40;;;;;;5014971;28;20489;-82
2023/09/16 09:55:22;;;;;;;3.83;2.83;;;25.30;75.90;;;;;;5018798;28;20128;-82
2023/09/16 09:57:49;;;;;;;6.03;3.20;;;25.50;75.00;;;;;;5026370;28;20045;-82
2023/09/16 10:00:20;;;;;;;4.88;2.63;;;25.50;74.90;;;;;;5019598;28;20064;-81
2023/09/16 10:02:47;;;;;;;6.53;3.13;;;25.50;73.30;;;;;;5024020;28;20049;-82
2023/09/16 10:05:21;;;;;;;5.22;2.55;;;25.50;73.20;;;;;;5022050;28;20069;-82
2023/09/16 10:07:48;;;;;;;4.22;2.00;;;25.50;73.40;;;;;;5022158;28;20057;-80
2023/09/16 10:10:16;;;;;;;4.20;1.92;;;25.70;73.60;;;;;;4985949;28;20382;-83
2023/09/16 10:12:44;;;;;;;2.88;1.98;;;25.80;72.10;;;;;;5023547;28;20009;-83
2023/09/16 10:15:10;;;;;;;3.70;1.73;;;25.80;71.30;;;;;;5023955;28;20076;-83
2023/09/16 10:17:37;;;;;;;3.38;1.88;;;25.80;70.80;;;;;;5022920;28;20049;-81
2023/09/16 10:20:02;;;;;;;4.50;1.25;;;25.90;71.00;;;;;;5029046;28;20037;-82
2023/09/16 10:22:30;;;;;;;4.10;1.70;;;25.80;70.20;;;;;;5010927;28;20456;-83
2023/09/16 10:24:55;;;;;;;3.40;2.00;;;25.90;70.80;;;;;;5026199;28;20030;-83
2023/09/16 10:27:24;;;;;;;5.07;2.00;;;26.10;70.50;;;;;;5023967;28;20056;-82
2023/09/16 10:29:51;;;;;;;3.15;2.05;;;26.10;70.10;;;;;;5014550;28;20030;-83
2023/09/16 10:32:16;;;;;;;2.90;1.65;;;26.10;71.00;;;;;;5031335;28;20086;-84
2023/09/16 10:34:45;;;;;;;4.00;1.50;;;26.30;70.40;;;;;;5029937;28;20076;-83
2023/09/16 10:37:17;;;;;;;2.78;1.83;;;26.30;69.80;;;;;;5032978;28;20141;-83
2023/09/16 10:39:45;;;;;;;3.27;2.00;;;26.40;69.80;;;;;;5028406;28;20089;-83
2023/09/16 10:42:16;;;;;;;2.33;1.27;;;26.50;68.70;;;;;;5015599;28;20020;-83
2023/09/16 10:44:42;;;;;;;3.38;1.75;;;26.50;69.50;;;;;;5032955;28;20014;-82
2023/09/16 10:47:09;;;;;;;3.65;1.50;;;26.60;69.50;;;;;;5032049;28;20018;-83
2023/09/16 10:49:34;;;;;;;2.33;1.90;;;26.70;68.80;;;;;;5014341;28;20026;-83
2023/09/16 10:52:03;;;;;;;3.42;1.60;;;26.70;68.60;;;;;;5011415;28;20041;-83
2023/09/16 10:54:45;;;;;;;3.08;1.33;;;26.80;67.80;;;;;;5032969;28;20014;-83
2023/09/16 10:57:19;;;;;;;3.25;2.03;;;26.90;66.10;;;;;;5032883;28;20040;-82
2023/09/16 10:59:50;;;;;;;3.60;1.15;;;27.00;66.80;;;;;;5029875;28;20025;-80
2023/09/16 11:02:31;;;;;;;3.83;1.40;;;27.10;65.60;;;;;;5010217;28;20080;-82
2023/09/16 11:04:57;;;;;;;2.40;1.30;;;27.20;65.60;;;;;;5030319;28;20037;-83
2023/09/16 11:07:24;;;;;;;2.08;1.02;;;27.30;65.70;;;;;;5031131;28;20089;-82
2023/09/16 11:09:51;;;;;;;2.38;1.10;;;27.30;65.30;;;;;;5026504;28;20032;-85
2023/09/16 11:12:19;;;;;;;4.28;1.20;;;27.40;65.60;;;;;;5028597;28;20029;-83
2023/09/16 11:14:44;;;;;;;1.80;1.38;;;27.50;65.00;;;;;;5019616;28;20030;-83
2023/09/16 11:17:14;;;;;;;2.00;1.23;;;27.40;65.30;;;;;;5017669;28;20041;-82
2023/09/16 11:19:40;;;;;;;1.35;0.82;;;27.40;64.60;;;;;;5017146;28;20484;-84
2023/09/16 11:22:06;;;;;;;1.45;1.27;;;27.40;65.90;;;;;;4990951;28;20160;-84
2023/09/16 11:24:36;;;;;;;4.38;1.40;;;27.40;64.70;;;;;;4993101;28;20065;-83
2023/09/16 11:27:02;;;;;;;2.38;1.00;;;27.50;65.60;;;;;;5025968;28;20400;-83
2023/09/16 11:29:29;;;;;;;2.08;1.30;;;27.50;65.70;;;;;;5021934;28;20188;-83
2023/09/16 11:31:55;;;;;;;1.90;1.33;;;27.50;66.00;;;;;;5019981;28;20096;-83
2023/09/16 11:34:24;;;;;;;1.45;1.08;;;27.60;65.60;;;;;;5021223;28;20080;-83
2023/09/16 11:37:03;;;;;;;1.52;0.90;;;27.60;66.00;;;;;;5021860;28;20026;-83
2023/09/16 11:39:42;;;;;;;3.83;1.10;;;27.50;65.30;;;;;;5010025;28;20455;-82
2023/09/16 11:42:08;;;;;;;4.40;1.40;;;27.60;65.90;;;;;;5022577;28;20030;-83
2023/09/16 11:44:35;;;;;;;3.53;1.23;;;27.60;66.10;;;;;;5001409;28;20029;-82
2023/09/16 11:47:02;;;;;;;1.23;0.93;;;27.60;67.50;;;;;;5018609;28;20034;-81
2023/09/16 11:49:33;;;;;;;1.60;0.95;;;27.80;66.70;;;;;;5019001;28;20108;-83
2023/09/16 11:51:59;;;;;;;2.17;1.42;;;27.80;66.30;;;;;;5024623;28;20037;-82
2023/09/16 11:54:25;;;;;;;2.60;1.50;;;27.80;65.90;;;;;;5000253;28;20093;-83
2023/09/16 11:56:52;;;;;;;2.05;1.15;;;27.90;66.20;;;;;;5015934;28;20137;-82
2023/09/16 11:59:18;;;;;;;2.55;1.42;;;28.00;66.40;;;;;;5013844;28;20057;-82
2023/09/16 12:01:44;;;;;;;2.50;1.42;;;28.00;66.00;;;;;;4997647;28;20034;-81
2023/09/16 12:04:11;;;;;;;4.40;1.55;;;27.70;67.10;;;;;;4996957;28;20040;-82
2023/09/16 12:06:38;;;;;;;2.70;1.80;;;27.80;67.70;;;;;;5014574;28;20030;-82
2023/09/16 12:09:10;;;;;;;1.60;1.38;;;27.80;68.30;;;;;;5014223;28;20029;-82
2023/09/16 12:11:38;;;;;;;2.63;1.35;;;27.90;68.00;;;;;;4997458;28;20112;-82
2023/09/16 12:14:06;;;;;;;3.25;1.80;;;28.00;67.80;;;;;;5014955;28;20042;-81
2023/09/16 12:16:32;;;;;;;2.75;1.40;;;28.10;67.30;;;;;;5013884;28;20034;-82
2023/09/16 12:18:58;;;;;;;2.42;1.30;;;28.10;67.30;;;;;;5014240;28;20425;-82
2023/09/16 12:21:24;;;;;;;1.52;1.23;;;28.10;67.50;;;;;;4996699;28;20038;-82
2023/09/16 12:23:51;;;;;;;2.28;1.60;;;28.30;67.80;;;;;;4996866;28;20042;-82
2023/09/16 12:26:18;;;;;;;3.08;1.80;;;28.40;67.20;;;;;;5014237;28;20104;-82
2023/09/16 12:28:44;;;;;;;2.08;1.80;;;28.40;66.40;;;;;;4996782;28;20033;-81
2023/09/16 12:31:11;;;;;;;1.85;1.60;;;28.40;65.70;;;;;;5013643;28;20037;-82
2023/09/16 12:33:38;;;;;;;3.35;1.50;;;28.40;67.20;;;;;;4996459;28;20451;-83
2023/09/16 12:36:04;;;;;;;2.88;1.58;;;28.40;68.00;;;;;;4996030;28;20521;-82
2023/09/16 12:38:34;;;;;;;1.73;1.40;;;28.60;67.00;;;;;;5014362;28;20116;-80
2023/09/16 12:41:01;;;;;;;1.63;1.40;;;28.50;66.60;;;;;;4979875;28;20030;-81
2023/09/16 12:43:27;;;;;;;2.75;1.25;;;28.40;67.10;;;;;;5012896;28;20030;-79
2023/09/16 12:45:53;;;;;;;2.13;1.40;;;28.30;67.80;;;;;;4996175;28;20026;-81